Time;durP1;ratioP1;P1;durP2;ratioP2;P2;SDS_P1;SDS_P2;PMS_P1;PMS_P2;Temp;Humidity;BMP_temperature;BMP_pressure;BME280_temperature;BME280_humidity;BME280_pressure;Samples;Min_cycle;Max_cycle;Signal;HPM_P1;HPM_P2
2022/11/24 00:01:31;;;;;;;3.00;2.13;;;7.10;99.90;;;;;;4951237;28;20262;-64
2022/11/24 00:04:00;;;;;;;3.87;2.70;;;7.00;99.90;;;;;;4957600;28;20254;-63
2022/11/24 00:06:29;;;;;;;2.30;2.10;;;7.00;99.90;;;;;;4965887;28;21012;-64
2022/11/24 00:08:56;;;;;;;4.60;2.23;;;7.00;99.90;;;;;;4935067;28;20218;-64
2022/11/24 00:11:25;;;;;;;8.07;2.53;;;6.90;99.90;;;;;;4967806;28;20231;-64
2022/11/24 00:13:52;;;;;;;7.73;2.10;;;6.80;99.90;;;;;;4961757;28;20229;-63
2022/11/24 00:16:20;;;;;;;4.00;2.67;;;6.80;99.90;;;;;;4951653;28;20242;-64
2022/11/24 00:18:50;;;;;;;5.10;2.40;;;6.60;99.90;;;;;;4966887;28;20214;-64
2022/11/24 00:21:18;;;;;;;3.10;2.20;;;6.60;99.90;;;;;;4951321;28;20713;-64
2022/11/24 00:23:47;;;;;;;7.30;2.50;;;6.60;99.90;;;;;;4930890;28;20226;-64
2022/11/24 00:26:16;;;;;;;4.73;2.17;;;6.50;99.90;;;;;;4959963;28;20739;-64
2022/11/24 00:28:43;;;;;;;3.43;2.43;;;6.40;99.90;;;;;;4968536;28;20222;-64
2022/11/24 00:31:18;;;;;;;6.27;2.40;;;6.40;99.90;;;;;;4951547;28;20694;-64
2022/11/24 00:33:47;;;;;;;5.83;2.00;;;6.40;99.90;;;;;;4970811;28;20222;-64
2022/11/24 00:36:14;;;;;;;4.50;2.53;;;6.40;99.90;;;;;;4957650;28;20227;-64
2022/11/24 00:38:41;;;;;;;5.70;2.57;;;6.30;99.90;;;;;;4933093;28;20238;-64
2022/11/24 00:41:09;;;;;;;3.90;2.40;;;6.30;99.90;;;;;;4958947;28;20228;-66
2022/11/24 00:43:36;;;;;;;2.73;2.10;;;6.20;99.90;;;;;;4969229;28;20231;-63
2022/11/24 00:46:03;;;;;;;12.10;2.80;;;6.20;99.90;;;;;;4944390;28;20239;-63
2022/11/24 00:48:31;;;;;;;4.47;2.77;;;6.20;99.90;;;;;;4961914;28;21023;-65
2022/11/24 00:51:00;;;;;;;6.03;2.67;;;6.20;99.90;;;;;;4951533;28;20997;-63
2022/11/24 00:53:27;;;;;;;3.23;2.30;;;6.30;99.90;;;;;;4938473;28;20883;-63
2022/11/24 00:55:54;;;;;;;6.33;2.73;;;6.10;99.90;;;;;;4957557;28;20242;-64
2022/11/24 00:58:23;;;;;;;4.40;2.47;;;6.10;99.90;;;;;;4959659;28;20245;-63
2022/11/24 01:00:51;;;;;;;3.13;2.40;;;7.30;99.90;;;;;;4949151;28;20234;-63
2022/11/24 01:03:19;;;;;;;8.50;2.60;;;6.00;99.90;;;;;;4954502;28;20234;-63
2022/11/24 01:05:46;;;;;;;3.57;2.47;;;5.90;99.90;;;;;;4959682;28;20230;-64
2022/11/24 01:08:13;;;;;;;5.10;2.60;;;5.90;99.90;;;;;;4928569;28;20231;-65
2022/11/24 01:10:40;;;;;;;5.80;2.90;;;5.90;99.90;;;;;;4950809;28;20227;-63
2022/11/24 01:13:07;;;;;;;5.57;3.07;;;5.90;99.90;;;;;;4964329;28;20254;-63
2022/11/24 01:15:36;;;;;;;3.93;2.53;;;5.90;99.90;;;;;;4952820;28;21016;-63
2022/11/24 01:18:04;;;;;;;5.97;2.77;;;5.90;99.90;;;;;;4956438;28;20343;-63
2022/11/24 01:20:31;;;;;;;5.60;2.73;;;5.90;99.90;;;;;;4961281;28;20698;-64
2022/11/24 01:22:58;;;;;;;10.67;3.13;;;5.80;99.90;;;;;;4955212;28;20837;-64
2022/11/24 01:25:25;;;;;;;7.23;2.87;;;5.90;99.90;;;;;;4939105;28;20231;-66
2022/11/24 01:27:52;;;;;;;3.17;2.70;;;6.00;99.90;;;;;;4957025;28;20594;-63
2022/11/24 01:30:20;;;;;;;6.77;2.97;;;6.00;99.90;;;;;;4950849;28;20227;-63
2022/11/24 01:32:49;;;;;;;4.53;2.67;;;6.10;99.90;;;;;;4951892;28;20221;-64
2022/11/24 01:35:16;;;;;;;6.17;3.27;;;6.10;99.90;;;;;;4969761;28;20223;-63
2022/11/24 01:37:42;;;;;;;5.80;3.40;;;6.10;99.90;;;;;;4947144;28;20235;-64
2022/11/24 01:40:11;;;;;;;6.97;3.47;;;6.30;99.90;;;;;;4927803;28;20239;-63
2022/11/24 01:42:43;;;;;;;7.00;3.50;;;6.30;99.90;;;;;;4955394;28;20226;-64
2022/11/24 01:45:34;;;;;;;5.73;3.10;;;6.40;99.90;;;;;;4951471;28;20790;-63
2022/11/24 01:48:06;;;;;;;6.57;3.70;;;6.40;99.90;;;;;;4949684;28;20227;-64
2022/11/24 01:50:34;;;;;;;4.67;3.80;;;6.50;99.90;;;;;;4951262;28;20705;-67
2022/11/24 01:53:01;;;;;;;8.03;4.20;;;6.50;99.90;;;;;;4948128;28;20680;-64
2022/11/24 01:55:33;;;;;;;6.70;4.17;;;6.60;99.90;;;;;;4921500;28;20243;-63
2022/11/24 01:58:05;;;;;;;7.13;3.87;;;6.70;99.90;;;;;;4949827;28;20223;-63
2022/11/24 02:00:34;;;;;;;6.83;3.87;;;6.70;99.90;;;;;;4963681;28;20216;-64
2022/11/24 02:03:02;;;;;;;8.40;4.77;;;6.80;99.90;;;;;;4949903;28;20286;-64
2022/11/24 02:05:35;;;;;;;8.60;4.70;;;6.90;99.90;;;;;;4967099;28;20826;-64
2022/11/24 02:08:02;;;;;;;6.93;4.00;;;6.90;99.90;;;;;;4954515;28;20720;-63
2022/11/24 02:10:30;;;;;;;7.23;4.33;;;7.00;99.90;;;;;;4932025;28;20241;-64
2022/11/24 02:12:59;;;;;;;6.50;3.83;;;7.00;99.90;;;;;;4959994;28;20722;-63
2022/11/24 02:15:26;;;;;;;10.80;4.93;;;7.00;99.90;;;;;;4960570;28;20216;-64
2022/11/24 02:17:53;;;;;;;10.80;4.73;;;7.00;99.90;;;;;;4959461;28;20573;-64
2022/11/24 02:20:21;;;;;;;10.50;5.40;;;6.90;99.90;;;;;;4958157;28;20223;-64
2022/11/24 02:22:54;;;;;;;13.00;4.77;;;7.10;99.90;;;;;;4964770;28;20220;-64
2022/11/24 02:25:30;;;;;;;7.07;4.60;;;7.10;99.90;;;;;;4936985;28;20723;-65
2022/11/24 02:28:00;;;;;;;9.90;5.10;;;7.10;99.90;;;;;;4961765;28;20595;-64
2022/11/24 02:30:27;;;;;;;9.57;4.67;;;7.10;99.90;;;;;;4968628;28;20227;-64
2022/11/24 02:32:54;;;;;;;10.20;5.00;;;7.20;99.90;;;;;;4967096;28;20220;-64
2022/11/24 02:35:21;;;;;;;8.87;4.53;;;7.20;99.90;;;;;;4954678;28;20230;-64
2022/11/24 02:37:48;;;;;;;7.77;5.07;;;7.20;99.90;;;;;;4962698;28;20230;-64
2022/11/24 02:40:16;;;;;;;6.90;4.63;;;7.20;99.90;;;;;;4965503;28;20223;-65
2022/11/24 02:42:45;;;;;;;7.03;4.87;;;7.20;99.90;;;;;;4936241;28;20231;-64
2022/11/24 02:45:16;;;;;;;12.73;5.20;;;7.20;99.90;;;;;;4962555;28;20611;-64
2022/11/24 02:47:42;;;;;;;9.77;4.70;;;7.20;99.90;;;;;;4957327;28;20239;-64
2022/11/24 02:50:09;;;;;;;10.83;5.00;;;7.20;99.90;;;;;;4952995;28;20227;-64
2022/11/24 02:52:37;;;;;;;12.47;5.43;;;;;;;;;;4960128;28;20232;-63
2022/11/24 02:55:04;;;;;;;12.00;5.27;;;7.20;99.90;;;;;;4948975;28;20240;-64
2022/11/24 02:57:31;;;;;;;9.47;5.07;;;7.30;99.90;;;;;;4930157;28;20359;-64
2022/11/24 02:59:58;;;;;;;14.33;5.30;;;7.30;99.90;;;;;;4957937;28;20227;-64
2022/11/24 03:02:26;;;;;;;8.30;5.53;;;7.20;99.90;;;;;;4967988;28;20223;-64
2022/11/24 03:04:53;;;;;;;11.63;5.23;;;7.20;99.90;;;;;;4956142;28;20227;-64
2022/11/24 03:07:20;;;;;;;7.80;4.83;;;7.10;99.90;;;;;;4958617;28;20254;-64
2022/11/24 03:09:47;;;;;;;10.37;4.97;;;7.10;99.90;;;;;;4960580;28;20215;-64
2022/11/24 03:12:13;;;;;;;8.50;4.97;;;7.00;99.90;;;;;;4958747;28;20248;-64
2022/11/24 03:14:40;;;;;;;16.63;5.33;;;7.00;99.90;;;;;;4934583;28;20230;-64
2022/11/24 03:17:07;;;;;;;6.10;4.47;;;6.90;99.90;;;;;;4972945;28;20235;-64
2022/11/24 03:19:35;;;;;;;11.27;5.27;;;6.90;99.90;;;;;;4959399;28;20215;-64
2022/11/24 03:22:02;;;;;;;11.80;5.03;;;6.80;99.90;;;;;;4958654;28;20227;-64
2022/11/24 03:24:29;;;;;;;10.03;4.90;;;6.80;99.90;;;;;;4963991;28;20235;-64
2022/11/24 03:26:56;;;;;;;8.23;5.03;;;6.70;99.90;;;;;;4955546;28;20818;-64
2022/11/24 03:29:23;;;;;;;7.10;4.60;;;6.70;99.90;;;;;;4938781;28;20246;-63
2022/11/24 03:31:50;;;;;;;14.33;4.60;;;6.70;99.90;;;;;;4964077;28;21607;-63
2022/11/24 03:34:17;;;;;;;8.10;4.60;;;6.60;99.90;;;;;;4967707;28;20720;-63
2022/11/24 03:36:45;;;;;;;9.50;4.43;;;6.50;99.90;;;;;;4954684;28;20212;-64
2022/11/24 03:39:12;;;;;;;12.10;4.87;;;6.50;99.90;;;;;;4963964;28;20259;-63
2022/11/24 03:41:38;;;;;;;9.57;4.50;;;6.50;99.90;;;;;;4952715;28;20228;-64
2022/11/24 03:44:05;;;;;;;13.87;5.33;;;6.50;99.90;;;;;;4939170;28;23312;-64
2022/11/24 03:46:32;;;;;;;13.80;5.23;;;6.50;99.90;;;;;;4952633;28;20744;-65
2022/11/24 03:48:59;;;;;;;9.73;4.27;;;6.40;99.90;;;;;;4964682;28;20227;-63
2022/11/24 03:51:26;;;;;;;7.90;4.67;;;6.40;99.90;;;;;;4959344;28;20214;-64
2022/11/24 03:53:54;;;;;;;9.13;4.70;;;6.40;99.90;;;;;;4953073;28;20301;-64
2022/11/24 03:56:21;;;;;;;15.93;4.63;;;6.40;99.90;;;;;;4963051;28;20227;-63
2022/11/24 03:58:48;;;;;;;9.30;4.80;;;6.40;99.90;;;;;;4938929;28;20238;-63
2022/11/24 04:01:15;;;;;;;13.97;5.37;;;6.30;99.90;;;;;;4953122;28;20227;-63
2022/11/24 04:03:42;;;;;;;14.03;5.43;;;6.40;99.90;;;;;;4954001;28;20250;-63
2022/11/24 04:06:09;;;;;;;14.90;5.10;;;6.40;99.90;;;;;;4955343;28;20242;-64
2022/11/24 04:08:36;;;;;;;8.60;4.60;;;6.40;99.90;;;;;;4942686;28;20227;-64
2022/11/24 04:11:04;;;;;;;11.23;5.27;;;6.30;99.90;;;;;;4945779;28;20230;-63
2022/11/24 04:13:30;;;;;;;8.03;4.97;;;6.30;99.90;;;;;;4932917;28;20234;-63
2022/11/24 04:15:57;;;;;;;14.50;5.53;;;6.30;99.90;;;;;;4948747;28;20231;-63
2022/11/24 04:18:24;;;;;;;11.97;4.87;;;6.30;99.90;;;;;;4962922;28;20238;-64
2022/11/24 04:20:51;;;;;;;9.93;5.30;;;6.30;99.90;;;;;;4960503;28;20222;-64
2022/11/24 04:23:19;;;;;;;14.27;5.37;;;6.30;99.90;;;;;;4951143;28;20223;-64
2022/11/24 04:25:46;;;;;;;9.43;5.30;;;6.30;99.90;;;;;;4952416;28;20227;-64
2022/11/24 04:28:14;;;;;;;14.43;4.80;;;6.30;99.90;;;;;;4955975;28;20278;-64
2022/11/24 04:30:43;;;;;;;9.17;5.03;;;6.30;99.90;;;;;;4930558;28;20234;-64
2022/11/24 04:33:11;;;;;;;16.60;5.17;;;6.20;99.90;;;;;;4949855;28;20261;-64
2022/11/24 04:35:38;;;;;;;13.00;5.27;;;6.20;99.90;;;;;;4955456;28;20229;-63
2022/11/24 04:38:04;;;;;;;15.07;4.90;;;6.20;99.90;;;;;;4953869;28;20223;-64
2022/11/24 04:40:31;;;;;;;10.80;4.60;;;6.20;99.90;;;;;;4930815;28;21633;-64
2022/11/24 04:42:58;;;;;;;15.43;5.00;;;6.20;99.90;;;;;;4959423;28;20227;-63
2022/11/24 04:45:26;;;;;;;16.13;5.00;;;6.30;99.90;;;;;;4916604;28;21315;-64
2022/11/24 04:47:53;;;;;;;11.33;4.90;;;6.40;99.90;;;;;;4950384;28;20310;-64
2022/11/24 04:50:20;;;;;;;10.73;4.90;;;6.30;99.90;;;;;;4945442;28;20262;-64
2022/11/24 04:52:47;;;;;;;8.57;4.57;;;6.40;99.90;;;;;;4940521;28;20231;-63
2022/11/24 04:55:14;;;;;;;10.83;4.97;;;6.40;99.90;;;;;;4936378;28;20249;-64
2022/11/24 04:57:41;;;;;;;12.23;5.60;;;6.40;99.90;;;;;;4949859;28;21804;-63
2022/11/24 05:00:10;;;;;;;15.87;5.50;;;6.50;99.90;;;;;;4919063;28;20235;-64
2022/11/24 05:02:38;;;;;;;10.90;4.77;;;6.50;99.90;;;;;;4945806;28;20321;-63
2022/11/24 05:05:06;;;;;;;10.10;4.63;;;6.50;99.90;;;;;;4958194;28;20318;-64
2022/11/24 05:07:33;;;;;;;9.83;5.10;;;6.50;99.90;;;;;;4954863;28;20235;-64
2022/11/24 05:12:44;;;;;;;10.27;4.70;;;6.50;99.90;;;;;;4943153;28;20273;-63
2022/11/24 05:15:13;;;;;;;18.73;5.43;;;6.50;99.90;;;;;;4927434;28;20238;-64
2022/11/24 05:17:41;;;;;;;11.80;4.13;;;6.50;99.90;;;;;;4947097;28;20218;-63
2022/11/24 05:20:08;;;;;;;13.07;4.70;;;6.50;99.90;;;;;;4967854;28;20215;-64
2022/11/24 05:22:35;;;;;;;12.23;4.73;;;6.50;99.90;;;;;;4959270;28;20258;-64
2022/11/24 05:25:02;;;;;;;12.80;5.17;;;6.50;99.90;;;;;;4961606;28;20223;-64
2022/11/24 05:27:29;;;;;;;11.47;4.80;;;6.50;99.90;;;;;;4944339;28;20238;-64
2022/11/24 05:29:56;;;;;;;21.73;5.67;;;6.50;99.90;;;;;;4963572;28;20215;-64
2022/11/24 05:32:23;;;;;;;13.37;4.67;;;6.40;99.90;;;;;;4935880;28;20609;-64
2022/11/24 05:34:53;;;;;;;14.73;5.07;;;6.30;99.90;;;;;;4942167;28;20231;-64
2022/11/24 05:37:20;;;;;;;11.30;4.60;;;6.30;99.90;;;;;;4957663;28;20293;-63
2022/11/24 05:39:47;;;;;;;14.27;4.97;;;6.40;99.90;;;;;;4950216;28;20229;-63
2022/11/24 05:44:58;;;;;;;15.80;5.03;;;6.40;99.90;;;;;;4944370;28;20233;-64
2022/11/24 05:47:25;;;;;;;11.07;4.83;;;6.30;99.90;;;;;;4923766;28;20357;-63
2022/11/24 05:49:53;;;;;;;11.17;4.67;;;6.30;99.90;;;;;;4944875;28;20233;-65
2022/11/24 05:52:20;;;;;;;13.60;4.73;;;6.20;99.90;;;;;;4958162;28;21435;-65
2022/11/24 05:54:47;;;;;;;13.57;4.13;;;6.30;99.90;;;;;;4957992;28;21584;-64
2022/11/24 05:57:14;;;;;;;12.27;4.07;;;6.20;99.90;;;;;;4954491;28;20228;-64
2022/11/24 05:59:41;;;;;;;17.93;5.13;;;6.20;99.90;;;;;;4957504;28;20238;-64
2022/11/24 06:02:08;;;;;;;18.03;5.67;;;6.20;99.90;;;;;;4937024;28;20240;-64
2022/11/24 06:04:35;;;;;;;11.57;5.30;;;6.30;99.90;;;;;;4956378;28;20229;-65
2022/11/24 06:07:07;;;;;;;7.03;4.47;;;6.30;99.90;;;;;;4956352;28;20235;-64
2022/11/24 06:09:35;;;;;;;21.47;5.00;;;6.30;99.90;;;;;;4952124;28;20815;-65
2022/11/24 06:12:02;;;;;;;15.07;5.10;;;6.30;99.90;;;;;;4958511;28;20537;-64
2022/11/24 06:14:29;;;;;;;18.50;4.63;;;6.30;99.90;;;;;;4963964;28;20622;-65
2022/11/24 06:16:56;;;;;;;11.63;4.43;;;6.30;99.90;;;;;;4943787;28;20247;-64
2022/11/24 06:19:23;;;;;;;12.87;4.03;;;6.30;99.90;;;;;;4954147;28;20224;-65
2022/11/24 06:21:50;;;;;;;13.00;4.37;;;6.30;99.90;;;;;;4960035;28;20218;-65
2022/11/24 06:24:18;;;;;;;10.20;4.23;;;6.30;99.90;;;;;;4963644;28;20196;-65
2022/11/24 06:26:45;;;;;;;11.33;4.23;;;6.30;99.90;;;;;;4969308;28;20193;-64
2022/11/24 06:29:12;;;;;;;14.87;3.93;;;6.30;99.90;;;;;;4958871;28;20676;-64
2022/11/24 06:31:38;;;;;;;13.97;4.13;;;6.20;99.90;;;;;;4961849;28;20203;-64
2022/11/24 06:34:06;;;;;;;7.20;3.40;;;6.10;99.90;;;;;;4941763;28;20305;-64
2022/11/24 06:36:33;;;;;;;9.07;3.67;;;6.10;99.90;;;;;;4966184;28;20654;-64
2022/11/24 06:39:01;;;;;;;7.27;3.17;;;6.00;99.90;;;;;;4961818;28;20763;-64
2022/11/24 06:41:30;;;;;;;8.17;3.10;;;6.10;99.90;;;;;;4971664;28;20206;-67
2022/11/24 06:43:57;;;;;;;15.63;3.87;;;6.00;99.90;;;;;;4962468;28;20208;-64
2022/11/24 06:46:24;;;;;;;8.07;3.47;;;5.90;99.90;;;;;;4963021;28;20200;-64
2022/11/24 06:48:52;;;;;;;10.37;3.87;;;5.90;99.90;;;;;;4931862;28;20241;-64
2022/11/24 06:51:18;;;;;;;12.97;3.80;;;5.90;99.90;;;;;;4956696;28;20234;-64
2022/11/24 06:53:45;;;;;;;7.97;3.97;;;6.00;99.90;;;;;;4955662;28;20249;-64
2022/11/24 06:56:14;;;;;;;10.73;3.80;;;6.00;99.90;;;;;;4960016;28;20242;-65
2022/11/24 06:58:43;;;;;;;14.20;3.47;;;6.00;99.90;;;;;;4955233;28;20232;-65
2022/11/24 07:01:14;;;;;;;8.70;3.37;;;6.10;99.90;;;;;;4962885;28;20211;-64
2022/11/24 07:03:41;;;;;;;10.37;3.27;;;6.10;99.90;;;;;;4968981;28;20708;-64
2022/11/24 07:06:08;;;;;;;10.63;3.13;;;6.10;99.90;;;;;;4938583;28;20221;-64
2022/11/24 07:08:35;;;;;;;10.97;4.03;;;6.10;99.90;;;;;;4932030;28;20238;-66
2022/11/24 07:11:05;;;;;;;11.67;3.90;;;6.10;99.90;;;;;;4960056;28;20680;-64
2022/11/24 07:13:32;;;;;;;9.47;3.17;;;6.10;99.90;;;;;;4948579;28;20681;-65
2022/11/24 07:16:00;;;;;;;15.23;3.60;;;6.10;99.90;;;;;;4969122;28;20207;-64
2022/11/24 07:18:27;;;;;;;10.33;3.57;;;6.10;99.90;;;;;;4968963;28;20198;-64
2022/11/24 07:20:54;;;;;;;5.70;3.47;;;6.10;99.90;;;;;;4929336;28;20230;-63
2022/11/24 07:23:21;;;;;;;7.87;3.43;;;6.00;99.90;;;;;;4954819;28;20219;-64
2022/11/24 07:25:48;;;;;;;8.23;2.90;;;6.10;99.90;;;;;;4948747;28;20246;-63
2022/11/24 07:28:15;;;;;;;14.73;3.20;;;6.10;99.90;;;;;;4941235;28;20362;-65
2022/11/24 07:30:42;;;;;;;9.50;3.40;;;6.00;99.90;;;;;;4953797;28;20222;-65
2022/11/24 07:33:10;;;;;;;14.53;3.33;;;5.90;99.90;;;;;;4968206;28;20219;-63
2022/11/24 07:35:37;;;;;;;8.93;3.03;;;5.80;99.90;;;;;;4938097;28;20228;-65
2022/11/24 07:38:04;;;;;;;14.07;3.37;;;5.80;99.90;;;;;;4963170;28;20256;-64
2022/11/24 07:40:30;;;;;;;5.80;2.77;;;5.90;99.90;;;;;;4957543;28;20708;-65
2022/11/24 07:43:00;;;;;;;8.30;3.07;;;5.90;99.90;;;;;;4939065;28;20226;-64
2022/11/24 07:45:27;;;;;;;7.20;2.47;;;5.90;99.90;;;;;;4966200;28;20200;-63
2022/11/24 07:47:54;;;;;;;10.53;2.87;;;5.90;99.90;;;;;;4955173;28;20313;-64
2022/11/24 07:50:22;;;;;;;9.30;3.50;;;5.90;99.90;;;;;;4940020;28;20659;-64
2022/11/24 07:52:49;;;;;;;6.43;2.70;;;5.90;99.90;;;;;;4941039;28;20230;-64
2022/11/24 07:55:16;;;;;;;10.67;3.30;;;5.90;99.90;;;;;;4966776;28;20230;-64
2022/11/24 07:57:43;;;;;;;8.80;2.73;;;5.90;99.90;;;;;;4937538;28;20605;-64
2022/11/24 08:00:11;;;;;;;7.60;3.07;;;5.90;99.90;;;;;;4963877;28;20223;-64
2022/11/24 08:02:38;;;;;;;9.00;2.97;;;6.00;99.90;;;;;;4965576;28;20698;-64
2022/11/24 08:05:07;;;;;;;10.63;2.70;;;6.00;99.90;;;;;;4946984;28;20208;-66
2022/11/24 08:07:35;;;;;;;9.63;3.07;;;6.00;99.90;;;;;;4954487;28;20255;-64
2022/11/24 08:10:02;;;;;;;12.27;3.47;;;6.10;99.90;;;;;;4956667;28;20231;-64
2022/11/24 08:12:29;;;;;;;10.80;3.27;;;6.10;99.90;;;;;;4949003;28;20206;-64
2022/11/24 08:14:56;;;;;;;10.70;3.50;;;6.20;99.90;;;;;;4940775;28;20217;-64
2022/11/24 08:17:23;;;;;;;6.53;3.00;;;6.30;99.90;;;;;;4963938;28;20558;-64
2022/11/24 08:19:50;;;;;;;5.33;2.63;;;6.40;99.90;;;;;;4963914;28;20210;-65
2022/11/24 08:22:16;;;;;;;8.20;3.63;;;6.40;99.90;;;;;;4928683;28;20227;-64
2022/11/24 08:24:47;;;;;;;9.57;2.53;;;6.50;99.90;;;;;;4949767;28;20215;-64
2022/11/24 08:27:15;;;;;;;13.63;2.73;;;6.50;99.90;;;;;;4958340;28;20210;-64
2022/11/24 08:29:42;;;;;;;11.17;3.00;;;6.50;99.90;;;;;;4946758;28;20207;-65
2022/11/24 08:32:10;;;;;;;12.67;3.57;;;6.60;99.90;;;;;;4967142;28;20210;-65
2022/11/24 08:34:37;;;;;;;12.90;3.27;;;6.60;99.90;;;;;;4964123;28;20203;-65
2022/11/24 08:37:04;;;;;;;12.00;3.87;;;6.70;99.90;;;;;;4937185;28;20218;-64
2022/11/24 08:39:31;;;;;;;11.97;2.83;;;6.80;99.90;;;;;;4953905;28;20215;-67
2022/11/24 08:41:59;;;;;;;19.50;3.40;;;6.80;99.90;;;;;;4963003;28;20585;-65
2022/11/24 08:44:27;;;;;;;19.83;3.73;;;6.90;99.90;;;;;;4961382;28;20228;-64
2022/11/24 08:46:54;;;;;;;7.67;2.77;;;6.90;99.90;;;;;;4952106;28;20254;-65
2022/11/24 08:49:22;;;;;;;23.43;3.80;;;7.00;99.90;;;;;;4971813;28;20263;-65
2022/11/24 08:51:50;;;;;;;13.23;3.17;;;7.00;99.90;;;;;;4944324;28;20708;-65
2022/11/24 08:54:18;;;;;;;16.83;3.07;;;7.10;99.90;;;;;;4955994;28;20677;-65
2022/11/24 08:56:45;;;;;;;13.90;3.50;;;7.20;99.90;;;;;;4946706;28;20730;-64
2022/11/24 08:59:14;;;;;;;11.37;3.60;;;7.20;99.90;;;;;;4953990;28;20227;-64
2022/11/24 09:01:41;;;;;;;14.90;2.73;;;7.20;99.90;;;;;;4957664;28;20203;-64
2022/11/24 09:04:08;;;;;;;13.40;2.80;;;7.30;99.90;;;;;;4961847;28;20231;-66
2022/11/24 09:06:35;;;;;;;16.23;3.67;;;7.30;99.90;;;;;;4948102;28;20219;-65
2022/11/24 09:09:02;;;;;;;6.50;2.77;;;7.40;99.90;;;;;;4954778;28;20467;-64
2022/11/24 09:11:29;;;;;;;15.93;3.50;;;7.40;99.90;;;;;;4943741;28;20254;-64
2022/11/24 09:13:56;;;;;;;17.83;3.00;;;7.50;99.90;;;;;;4953758;28;20231;-65
2022/11/24 09:16:26;;;;;;;10.43;2.57;;;7.50;99.90;;;;;;4948482;28;20227;-65
2022/11/24 09:18:56;;;;;;;10.83;2.70;;;7.50;99.90;;;;;;4958446;28;20222;-64
2022/11/24 09:21:24;;;;;;;12.87;3.60;;;7.60;99.90;;;;;;4967071;28;21541;-66
2022/11/24 09:23:52;;;;;;;10.67;3.50;;;7.70;99.90;;;;;;4933879;28;20207;-66
2022/11/24 09:26:20;;;;;;;21.07;3.00;;;7.80;99.90;;;;;;4951960;28;20231;-64
2022/11/24 09:28:48;;;;;;;13.53;3.43;;;7.80;99.90;;;;;;4952665;28;20255;-65
2022/11/24 09:31:17;;;;;;;20.07;3.50;;;7.80;99.90;;;;;;4943347;28;20614;-65
2022/11/24 09:33:45;;;;;;;15.53;3.90;;;7.80;99.90;;;;;;4963675;28;20200;-66
2022/11/24 09:36:13;;;;;;;10.60;3.77;;;7.90;99.90;;;;;;4958923;28;20220;-65
2022/11/24 09:38:40;;;;;;;16.40;3.00;;;7.90;99.90;;;;;;4940743;28;20219;-66
2022/11/24 09:41:45;;;;;;;17.20;3.80;;;7.90;99.90;;;;;;4954541;28;20222;-66
2022/11/24 09:44:37;;;;;;;14.97;2.97;;;7.90;99.90;;;;;;4874129;29;20214;-65
2022/11/24 09:47:14;;;;;;;21.50;3.97;;;8.00;99.90;;;;;;4942541;28;20308;-66
2022/11/24 09:49:50;;;;;;;16.10;3.33;;;8.00;99.90;;;;;;4951514;28;20253;-63
2022/11/24 09:52:22;;;;;;;15.83;3.37;;;8.00;99.90;;;;;;4969427;28;20210;-65
2022/11/24 09:54:55;;;;;;;17.10;3.73;;;8.00;99.90;;;;;;4938876;28;21003;-66
2022/11/24 09:57:26;;;;;;;11.67;3.70;;;8.10;99.90;;;;;;4956871;28;20218;-65
2022/11/24 09:59:55;;;;;;;16.20;4.13;;;8.10;99.90;;;;;;4953307;28;20210;-65
2022/11/24 10:02:22;;;;;;;13.70;3.87;;;8.10;99.90;;;;;;4954614;28;20208;-66
2022/11/24 10:04:53;;;;;;;17.33;4.50;;;8.20;99.90;;;;;;4952018;28;20299;-65
2022/11/24 10:07:26;;;;;;;11.73;3.53;;;8.30;99.90;;;;;;4965225;28;20219;-65
2022/11/24 10:09:59;;;;;;;13.47;3.67;;;8.30;99.90;;;;;;4939914;28;20820;-66
2022/11/24 10:12:47;;;;;;;13.80;4.43;;;8.30;99.90;;;;;;4972856;28;20207;-65
2022/11/24 10:15:26;;;;;;;12.50;3.47;;;8.30;99.90;;;;;;4950925;28;20752;-65
2022/11/24 10:18:20;;;;;;;15.33;3.87;;;8.40;99.90;;;;;;4959544;28;20212;-65
2022/11/24 10:20:55;;;;;;;12.73;3.60;;;8.40;99.90;;;;;;4967277;28;20294;-65
2022/11/24 10:23:34;;;;;;;10.27;3.67;;;8.40;99.90;;;;;;4963819;28;20777;-66
2022/11/24 10:26:04;;;;;;;11.87;4.00;;;8.50;99.90;;;;;;4939895;28;20213;-65
2022/11/24 10:28:37;;;;;;;14.70;3.87;;;8.50;99.90;;;;;;4953778;28;21792;-67
2022/11/24 10:31:17;;;;;;;10.80;4.23;;;8.60;99.90;;;;;;4960003;28;20220;-65
2022/11/24 10:33:45;;;;;;;18.63;4.23;;;8.60;99.90;;;;;;4951746;28;20305;-65
2022/11/24 10:36:20;;;;;;;14.37;4.10;;;8.60;99.90;;;;;;4964306;28;20720;-65
2022/11/24 10:38:53;;;;;;;10.90;3.23;;;8.60;99.90;;;;;;4963706;28;20223;-65
2022/11/24 10:41:28;;;;;;;17.17;3.33;;;8.70;99.90;;;;;;4940508;28;20223;-65
2022/11/24 10:43:58;;;;;;;12.23;4.47;;;8.70;99.90;;;;;;4961169;28;21202;-65
2022/11/24 10:46:28;;;;;;;16.30;3.77;;;8.70;99.90;;;;;;4967805;28;20224;-65
2022/11/24 10:48:58;;;;;;;15.60;4.30;;;8.80;99.90;;;;;;4963076;28;20603;-65
2022/11/24 10:52:01;;;;;;;13.47;4.13;;;8.80;99.90;;;;;;4944249;28;20235;-65
2022/11/24 10:54:29;;;;;;;23.07;5.10;;;8.80;99.90;;;;;;4965279;28;20574;-64
2022/11/24 10:56:56;;;;;;;10.60;3.67;;;8.80;99.90;;;;;;4936463;28;20739;-65
2022/11/24 10:59:38;;;;;;;25.83;4.30;;;8.90;99.90;;;;;;4957311;28;20253;-66
2022/11/24 11:02:34;;;;;;;12.53;3.90;;;8.90;99.90;;;;;;4968547;28;20222;-65
2022/11/24 11:05:27;;;;;;;21.07;4.37;;;8.90;99.90;;;;;;4953634;28;20812;-65
2022/11/24 11:08:21;;;;;;;14.38;4.07;;;8.90;99.90;;;;;;4952593;28;20228;-66
2022/11/24 11:10:51;;;;;;;15.37;4.23;;;8.90;99.90;;;;;;4963543;28;20223;-65
2022/11/24 11:13:22;;;;;;;14.30;4.50;;;8.90;99.90;;;;;;4932340;28;20226;-66
2022/11/24 11:15:50;;;;;;;12.73;3.50;;;8.90;99.90;;;;;;4957580;28;20227;-66
2022/11/24 11:18:18;;;;;;;17.57;3.87;;;8.90;99.90;;;;;;4960797;28;20235;-66
2022/11/24 11:20:51;;;;;;;14.27;3.60;;;9.00;99.90;;;;;;4952571;28;20192;-66
2022/11/24 11:23:23;;;;;;;14.98;3.88;;;9.00;99.90;;;;;;4958071;28;20313;-65
2022/11/24 11:26:12;;;;;;;12.83;4.10;;;9.10;99.90;;;;;;4956312;28;21011;-69
2022/11/24 11:28:39;;;;;;;15.07;3.58;;;9.10;99.90;;;;;;4933438;28;21268;-66
2022/11/24 11:31:19;;;;;;;10.93;4.28;;;9.10;99.90;;;;;;4955624;28;20207;-66
2022/11/24 11:33:56;;;;;;;12.10;3.80;;;9.10;99.90;;;;;;4965627;28;20802;-66
2022/11/24 11:36:23;;;;;;;14.33;4.13;;;9.10;99.90;;;;;;4950109;28;20223;-66
2022/11/24 11:38:50;;;;;;;12.33;3.57;;;9.10;99.90;;;;;;4959519;28;20456;-67
2022/11/24 11:41:22;;;;;;;16.25;3.45;;;9.20;99.90;;;;;;4963636;28;20228;-67
2022/11/24 11:43:54;;;;;;;10.23;3.22;;;9.10;99.90;;;;;;4927071;28;20226;-66
2022/11/24 11:46:22;;;;;;;8.67;3.37;;;9.10;99.90;;;;;;4954435;28;20238;-67
2022/11/24 11:48:49;;;;;;;8.52;3.58;;;9.10;99.90;;;;;;4961116;28;20309;-66
2022/11/24 11:51:32;;;;;;;10.87;3.23;;;9.10;99.90;;;;;;4943557;28;20262;-66
2022/11/24 11:54:08;;;;;;;12.10;3.28;;;9.10;99.90;;;;;;4962697;28;20234;-66
2022/11/24 11:56:43;;;;;;;10.05;2.97;;;9.20;99.90;;;;;;4963459;28;20242;-65
2022/11/24 11:59:29;;;;;;;10.20;3.47;;;9.20;99.90;;;;;;4927836;28;20215;-67
2022/11/24 12:02:16;;;;;;;12.97;2.93;;;9.20;99.90;;;;;;4951201;28;20227;-66
2022/11/24 12:04:48;;;;;;;6.97;2.80;;;9.10;99.90;;;;;;4951586;28;20225;-65
2022/11/24 12:07:33;;;;;;;10.93;3.28;;;9.20;99.90;;;;;;4947978;28;20215;-65
2022/11/24 12:10:07;;;;;;;11.13;2.90;;;9.20;99.90;;;;;;4960441;28;20240;-68
2022/11/24 12:12:56;;;;;;;8.90;2.87;;;9.30;99.90;;;;;;4961366;28;20230;-66
2022/11/24 12:15:31;;;;;;;11.98;2.85;;;9.30;99.90;;;;;;4935106;28;20234;-66
2022/11/24 12:18:09;;;;;;;14.32;3.20;;;9.30;99.90;;;;;;4952629;28;20203;-67
2022/11/24 12:20:51;;;;;;;8.67;3.03;;;9.30;99.90;;;;;;4951859;28;20227;-67
2022/11/24 12:23:30;;;;;;;5.82;3.15;;;9.30;99.90;;;;;;4958120;28;20274;-66
2022/11/24 12:26:05;;;;;;;7.33;2.60;;;9.20;99.90;;;;;;4933878;28;20219;-65
2022/11/24 12:29:00;;;;;;;10.57;2.70;;;9.20;99.90;;;;;;4956373;28;20242;-66
2022/11/24 12:31:35;;;;;;;6.80;3.13;;;9.20;99.90;;;;;;4909791;28;20228;-66
2022/11/24 12:34:28;;;;;;;6.82;2.67;;;9.20;99.90;;;;;;4925136;28;20200;-66
2022/11/24 12:37:11;;;;;;;10.00;2.63;;;9.20;99.90;;;;;;4920747;28;20199;-66
2022/11/24 12:39:45;;;;;;;10.30;2.93;;;9.20;99.90;;;;;;4945068;28;20210;-66
2022/11/24 12:42:19;;;;;;;8.13;2.95;;;9.20;99.90;;;;;;4939682;28;20208;-65
2022/11/24 12:45:06;;;;;;;10.70;2.65;;;9.20;99.90;;;;;;4933802;28;20195;-66
2022/11/24 12:47:39;;;;;;;9.00;2.53;;;9.20;99.90;;;;;;4917546;28;20216;-67
2022/11/24 12:50:10;;;;;;;12.53;3.23;;;9.20;99.90;;;;;;4949531;28;20285;-65
2022/11/24 12:52:40;;;;;;;8.85;2.75;;;9.20;99.90;;;;;;4958528;28;20200;-67
2022/11/24 12:55:15;;;;;;;10.90;3.17;;;9.30;99.90;;;;;;4957011;28;20235;-66
2022/11/24 12:57:47;;;;;;;10.90;2.53;;;9.00;99.90;;;;;;4962429;28;20206;-67
2022/11/24 13:00:21;;;;;;;17.95;2.88;;;9.20;99.90;;;;;;4958305;28;20208;-66
2022/11/24 13:03:05;;;;;;;9.77;2.65;;;9.20;99.90;;;;;;4933149;28;20212;-67
2022/11/24 13:05:38;;;;;;;7.72;2.15;;;9.20;99.90;;;;;;4961625;28;20208;-66
2022/11/24 13:08:06;;;;;;;10.43;2.90;;;9.30;99.90;;;;;;4923786;28;20985;-67
2022/11/24 13:10:36;;;;;;;5.18;2.40;;;9.30;99.90;;;;;;4944780;28;21278;-66